sensor_id;sensor_type;location;lat;lon;timestamp;P1;durP1;ratioP1;P2;durP2;ratioP2
71464;SDS011;59274;49.874;9.154;2023-09-19T00:01:07;0.73;;;0.70;;
71464;SDS011;59274;49.874;9.154;2023-09-19T00:03:34;1.05;;;0.68;;
71464;SDS011;59274;49.874;9.154;2023-09-19T00:06:02;1.43;;;0.80;;
71464;SDS011;59274;49.874;9.154;2023-09-19T00:08:28;1.90;;;1.10;;
71464;SDS011;59274;49.874;9.154;2023-09-19T00:10:54;1.33;;;0.80;;
71464;SDS011;59274;49.874;9.154;2023-09-19T00:13:20;4.53;;;0.90;;
71464;SDS011;59274;49.874;9.154;2023-09-19T00:15:46;4.75;;;0.80;;
71464;SDS011;59274;49.874;9.154;2023-09-19T00:18:16;1.25;;;0.55;;
71464;SDS011;59274;49.874;9.154;2023-09-19T00:20:49;1.73;;;0.70;;
71464;SDS011;59274;49.874;9.154;2023-09-19T00:23:16;1.13;;;0.70;;
71464;SDS011;59274;49.874;9.154;2023-09-19T00:25:44;1.08;;;0.82;;
71464;SDS011;59274;49.874;9.154;2023-09-19T00:28:10;2.17;;;1.08;;
71464;SDS011;59274;49.874;9.154;2023-09-19T00:30:36;1.10;;;0.80;;
71464;SDS011;59274;49.874;9.154;2023-09-19T00:33:03;0.90;;;0.80;;
71464;SDS011;59274;49.874;9.154;2023-09-19T00:35:31;1.10;;;0.85;;
71464;SDS011;59274;49.874;9.154;2023-09-19T00:37:56;1.73;;;0.85;;
71464;SDS011;59274;49.874;9.154;2023-09-19T00:40:22;1.90;;;0.95;;
71464;SDS011;59274;49.874;9.154;2023-09-19T00:42:48;1.33;;;0.93;;
71464;SDS011;59274;49.874;9.154;2023-09-19T00:45:15;4.68;;;1.20;;
71464;SDS011;59274;49.874;9.154;2023-09-19T00:47:43;2.65;;;0.90;;
71464;SDS011;59274;49.874;9.154;2023-09-19T00:50:15;2.43;;;0.80;;
71464;SDS011;59274;49.874;9.154;2023-09-19T00:52:42;1.70;;;0.80;;
71464;SDS011;59274;49.874;9.154;2023-09-19T00:55:09;1.27;;;0.77;;
71464;SDS011;59274;49.874;9.154;2023-09-19T00:57:36;1.23;;;0.90;;
71464;SDS011;59274;49.874;9.154;2023-09-19T01:00:06;2.55;;;1.10;;
71464;SDS011;59274;49.874;9.154;2023-09-19T01:02:34;1.83;;;0.87;;
71464;SDS011;59274;49.874;9.154;2023-09-19T01:05:00;0.63;;;0.60;;
71464;SDS011;59274;49.874;9.154;2023-09-19T01:07:26;2.40;;;1.00;;
71464;SDS011;59274;49.874;9.154;2023-09-19T01:09:57;1.70;;;0.90;;
71464;SDS011;59274;49.874;9.154;2023-09-19T01:15:59;2.53;;;0.77;;
71464;SDS011;59274;49.874;9.154;2023-09-19T01:20:55;1.00;;;0.88;;
71464;SDS011;59274;49.874;9.154;2023-09-19T01:23:29;1.50;;;0.80;;
71464;SDS011;59274;49.874;9.154;2023-09-19T01:29:17;1.30;;;0.80;;
71464;SDS011;59274;49.874;9.154;2023-09-19T01:31:41;1.13;;;0.73;;
71464;SDS011;59274;49.874;9.154;2023-09-19T01:34:08;3.08;;;1.42;;
71464;SDS011;59274;49.874;9.154;2023-09-19T01:36:35;1.30;;;1.00;;
71464;SDS011;59274;49.874;9.154;2023-09-19T01:39:08;1.05;;;0.73;;
71464;SDS011;59274;49.874;9.154;2023-09-19T01:47:17;2.42;;;0.80;;
71464;SDS011;59274;49.874;9.154;2023-09-19T01:52:36;2.35;;;1.00;;
71464;SDS011;59274;49.874;9.154;2023-09-19T01:55:08;1.27;;;0.70;;
71464;SDS011;59274;49.874;9.154;2023-09-19T01:57:40;2.60;;;1.08;;
71464;SDS011;59274;49.874;9.154;2023-09-19T02:00:14;1.92;;;0.90;;
71464;SDS011;59274;49.874;9.154;2023-09-19T02:02:46;1.80;;;1.00;;
71464;SDS011;59274;49.874;9.154;2023-09-19T02:05:13;4.07;;;1.13;;
71464;SDS011;59274;49.874;9.154;2023-09-19T02:07:38;1.33;;;1.00;;
71464;SDS011;59274;49.874;9.154;2023-09-19T02:10:06;2.08;;;1.17;;
71464;SDS011;59274;49.874;9.154;2023-09-19T02:12:32;8.80;;;1.42;;
71464;SDS011;59274;49.874;9.154;2023-09-19T02:14:58;1.83;;;1.13;;
71464;SDS011;59274;49.874;9.154;2023-09-19T02:17:24;1.93;;;0.93;;
71464;SDS011;59274;49.874;9.154;2023-09-19T02:19:53;2.17;;;1.05;;
71464;SDS011;59274;49.874;9.154;2023-09-19T02:22:21;4.72;;;1.17;;
71464;SDS011;59274;49.874;9.154;2023-09-19T02:24:47;1.55;;;0.77;;
71464;SDS011;59274;49.874;9.154;2023-09-19T02:27:13;2.43;;;1.07;;
71464;SDS011;59274;49.874;9.154;2023-09-19T02:29:41;2.03;;;1.10;;
71464;SDS011;59274;49.874;9.154;2023-09-19T02:32:06;2.03;;;0.80;;
71464;SDS011;59274;49.874;9.154;2023-09-19T02:34:32;1.63;;;1.10;;
71464;SDS011;59274;49.874;9.154;2023-09-19T02:36:57;2.47;;;1.00;;
71464;SDS011;59274;49.874;9.154;2023-09-19T02:39:23;4.15;;;1.27;;
71464;SDS011;59274;49.874;9.154;2023-09-19T02:41:49;1.80;;;1.23;;
71464;SDS011;59274;49.874;9.154;2023-09-19T02:44:17;2.05;;;1.20;;
71464;SDS011;59274;49.874;9.154;2023-09-19T02:46:45;4.72;;;1.30;;
71464;SDS011;59274;49.874;9.154;2023-09-19T02:49:11;1.97;;;1.13;;
71464;SDS011;59274;49.874;9.154;2023-09-19T02:51:38;3.88;;;1.35;;
71464;SDS011;59274;49.874;9.154;2023-09-19T02:54:03;2.10;;;0.90;;
71464;SDS011;59274;49.874;9.154;2023-09-19T02:56:29;2.10;;;1.20;;
71464;SDS011;59274;49.874;9.154;2023-09-19T02:58:55;1.70;;;1.00;;
71464;SDS011;59274;49.874;9.154;2023-09-19T03:01:21;2.55;;;1.30;;
71464;SDS011;59274;49.874;9.154;2023-09-19T03:03:47;1.42;;;1.00;;
71464;SDS011;59274;49.874;9.154;2023-09-19T03:06:13;2.08;;;1.30;;
71464;SDS011;59274;49.874;9.154;2023-09-19T03:08:38;4.67;;;1.20;;
71464;SDS011;59274;49.874;9.154;2023-09-19T03:11:07;3.15;;;1.50;;
71464;SDS011;59274;49.874;9.154;2023-09-19T03:13:50;3.33;;;1.42;;
71464;SDS011;59274;49.874;9.154;2023-09-19T03:16:19;1.65;;;1.17;;
71464;SDS011;59274;49.874;9.154;2023-09-19T03:18:47;2.83;;;1.33;;
71464;SDS011;59274;49.874;9.154;2023-09-19T03:21:14;2.72;;;1.40;;
71464;SDS011;59274;49.874;9.154;2023-09-19T03:23:40;2.72;;;1.30;;
71464;SDS011;59274;49.874;9.154;2023-09-19T03:26:05;3.03;;;1.27;;
71464;SDS011;59274;49.874;9.154;2023-09-19T03:28:32;5.35;;;1.80;;
71464;SDS011;59274;49.874;9.154;2023-09-19T03:30:59;5.17;;;1.30;;
71464;SDS011;59274;49.874;9.154;2023-09-19T03:33:25;3.60;;;1.40;;
71464;SDS011;59274;49.874;9.154;2023-09-19T03:35:54;4.78;;;1.98;;
71464;SDS011;59274;49.874;9.154;2023-09-19T03:38:20;2.55;;;1.40;;
71464;SDS011;59274;49.874;9.154;2023-09-19T03:40:48;3.15;;;1.55;;
71464;SDS011;59274;49.874;9.154;2023-09-19T03:43:14;2.10;;;1.27;;
71464;SDS011;59274;49.874;9.154;2023-09-19T03:45:39;4.60;;;1.57;;
71464;SDS011;59274;49.874;9.154;2023-09-19T03:48:11;1.98;;;1.15;;
71464;SDS011;59274;49.874;9.154;2023-09-19T03:50:37;2.53;;;1.20;;
71464;SDS011;59274;49.874;9.154;2023-09-19T03:53:02;2.45;;;1.48;;
71464;SDS011;59274;49.874;9.154;2023-09-19T03:55:28;2.57;;;1.30;;
71464;SDS011;59274;49.874;9.154;2023-09-19T03:57:57;4.97;;;1.30;;
71464;SDS011;59274;49.874;9.154;2023-09-19T04:00:23;2.85;;;1.30;;
71464;SDS011;59274;49.874;9.154;2023-09-19T04:02:51;3.47;;;1.43;;
71464;SDS011;59274;49.874;9.154;2023-09-19T04:05:18;3.15;;;1.40;;
71464;SDS011;59274;49.874;9.154;2023-09-19T04:07:44;3.65;;;1.50;;
71464;SDS011;59274;49.874;9.154;2023-09-19T04:10:09;1.87;;;1.20;;
71464;SDS011;59274;49.874;9.154;2023-09-19T04:12:36;7.15;;;1.55;;
71464;SDS011;59274;49.874;9.154;2023-09-19T04:15:03;3.65;;;1.67;;
71464;SDS011;59274;49.874;9.154;2023-09-19T04:17:32;2.22;;;1.38;;
71464;SDS011;59274;49.874;9.154;2023-09-19T04:20:00;2.20;;;1.30;;
71464;SDS011;59274;49.874;9.154;2023-09-19T04:22:26;4.23;;;1.87;;
71464;SDS011;59274;49.874;9.154;2023-09-19T04:24:51;3.23;;;1.20;;
71464;SDS011;59274;49.874;9.154;2023-09-19T04:27:17;8.13;;;1.47;;
71464;SDS011;59274;49.874;9.154;2023-09-19T04:29:43;2.60;;;1.55;;
71464;SDS011;59274;49.874;9.154;2023-09-19T04:32:09;2.73;;;1.27;;
71464;SDS011;59274;49.874;9.154;2023-09-19T04:34:35;2.90;;;1.45;;
71464;SDS011;59274;49.874;9.154;2023-09-19T04:37:00;2.35;;;1.25;;
71464;SDS011;59274;49.874;9.154;2023-09-19T04:39:27;3.90;;;1.45;;
71464;SDS011;59274;49.874;9.154;2023-09-19T04:41:53;3.03;;;1.57;;
71464;SDS011;59274;49.874;9.154;2023-09-19T04:44:19;1.80;;;1.00;;
71464;SDS011;59274;49.874;9.154;2023-09-19T04:46:46;3.78;;;1.40;;
71464;SDS011;59274;49.874;9.154;2023-09-19T04:49:11;2.03;;;1.30;;
71464;SDS011;59274;49.874;9.154;2023-09-19T04:51:37;2.58;;;1.30;;
71464;SDS011;59274;49.874;9.154;2023-09-19T04:54:03;3.17;;;1.63;;
71464;SDS011;59274;49.874;9.154;2023-09-19T04:56:29;3.43;;;1.47;;
71464;SDS011;59274;49.874;9.154;2023-09-19T04:58:55;2.75;;;1.50;;
71464;SDS011;59274;49.874;9.154;2023-09-19T05:01:20;3.80;;;1.57;;
71464;SDS011;59274;49.874;9.154;2023-09-19T05:03:48;3.45;;;1.40;;
71464;SDS011;59274;49.874;9.154;2023-09-19T05:06:18;5.68;;;1.63;;
71464;SDS011;59274;49.874;9.154;2023-09-19T05:08:46;2.60;;;1.20;;
71464;SDS011;59274;49.874;9.154;2023-09-19T05:11:15;2.87;;;1.70;;
71464;SDS011;59274;49.874;9.154;2023-09-19T05:13:40;3.35;;;1.30;;
71464;SDS011;59274;49.874;9.154;2023-09-19T05:16:06;3.87;;;1.20;;
71464;SDS011;59274;49.874;9.154;2023-09-19T05:18:35;2.85;;;1.20;;
71464;SDS011;59274;49.874;9.154;2023-09-19T05:21:01;2.30;;;1.30;;
71464;SDS011;59274;49.874;9.154;2023-09-19T05:23:27;2.47;;;1.30;;
71464;SDS011;59274;49.874;9.154;2023-09-19T05:25:53;1.67;;;1.00;;
71464;SDS011;59274;49.874;9.154;2023-09-19T05:28:19;3.13;;;1.65;;
71464;SDS011;59274;49.874;9.154;2023-09-19T05:30:45;2.10;;;1.20;;
71464;SDS011;59274;49.874;9.154;2023-09-19T05:33:11;2.70;;;1.45;;
71464;SDS011;59274;49.874;9.154;2023-09-19T05:35:37;4.13;;;1.60;;
71464;SDS011;59274;49.874;9.154;2023-09-19T05:38:04;3.87;;;1.40;;
71464;SDS011;59274;49.874;9.154;2023-09-19T05:40:33;1.85;;;1.20;;
71464;SDS011;59274;49.874;9.154;2023-09-19T05:43:00;6.78;;;1.75;;
71464;SDS011;59274;49.874;9.154;2023-09-19T05:45:26;3.03;;;1.60;;
71464;SDS011;59274;49.874;9.154;2023-09-19T05:47:52;4.90;;;1.42;;
71464;SDS011;59274;49.874;9.154;2023-09-19T05:50:29;4.53;;;1.30;;
71464;SDS011;59274;49.874;9.154;2023-09-19T05:52:55;4.30;;;1.35;;
71464;SDS011;59274;49.874;9.154;2023-09-19T05:55:21;3.58;;;1.40;;
71464;SDS011;59274;49.874;9.154;2023-09-19T05:57:52;3.10;;;1.73;;
71464;SDS011;59274;49.874;9.154;2023-09-19T06:00:22;4.80;;;1.50;;
71464;SDS011;59274;49.874;9.154;2023-09-19T06:02:56;3.58;;;1.80;;
71464;SDS011;59274;49.874;9.154;2023-09-19T06:05:22;5.15;;;1.58;;
71464;SDS011;59274;49.874;9.154;2023-09-19T06:07:53;4.15;;;1.48;;
71464;SDS011;59274;49.874;9.154;2023-09-19T06:10:19;2.93;;;1.60;;
71464;SDS011;59274;49.874;9.154;2023-09-19T06:12:48;3.33;;;1.70;;
71464;SDS011;59274;49.874;9.154;2023-09-19T06:15:14;3.05;;;1.80;;
71464;SDS011;59274;49.874;9.154;2023-09-19T06:17:53;3.50;;;1.73;;
71464;SDS011;59274;49.874;9.154;2023-09-19T06:20:20;2.90;;;1.77;;
71464;SDS011;59274;49.874;9.154;2023-09-19T06:22:47;2.75;;;1.85;;
71464;SDS011;59274;49.874;9.154;2023-09-19T06:25:13;3.83;;;2.00;;
71464;SDS011;59274;49.874;9.154;2023-09-19T06:27:51;4.40;;;1.85;;
71464;SDS011;59274;49.874;9.154;2023-09-19T06:30:18;8.47;;;2.00;;
71464;SDS011;59274;49.874;9.154;2023-09-19T06:32:45;3.33;;;1.45;;
71464;SDS011;59274;49.874;9.154;2023-09-19T06:35:11;5.00;;;1.98;;
71464;SDS011;59274;49.874;9.154;2023-09-19T06:37:38;3.25;;;1.58;;
71464;SDS011;59274;49.874;9.154;2023-09-19T06:40:05;3.75;;;1.70;;
71464;SDS011;59274;49.874;9.154;2023-09-19T06:42:32;2.67;;;1.60;;
71464;SDS011;59274;49.874;9.154;2023-09-19T06:44:57;3.27;;;1.53;;
71464;SDS011;59274;49.874;9.154;2023-09-19T06:47:23;4.38;;;1.40;;
71464;SDS011;59274;49.874;9.154;2023-09-19T06:49:51;4.88;;;1.73;;
71464;SDS011;59274;49.874;9.154;2023-09-19T06:52:17;4.65;;;1.88;;
71464;SDS011;59274;49.874;9.154;2023-09-19T06:54:46;9.05;;;1.98;;
71464;SDS011;59274;49.874;9.154;2023-09-19T06:57:12;3.03;;;1.65;;
71464;SDS011;59274;49.874;9.154;2023-09-19T06:59:38;2.92;;;1.70;;
71464;SDS011;59274;49.874;9.154;2023-09-19T07:02:04;2.70;;;1.50;;
71464;SDS011;59274;49.874;9.154;2023-09-19T07:04:31;3.38;;;1.48;;
71464;SDS011;59274;49.874;9.154;2023-09-19T07:06:57;3.42;;;1.33;;
71464;SDS011;59274;49.874;9.154;2023-09-19T07:09:23;3.35;;;1.40;;
71464;SDS011;59274;49.874;9.154;2023-09-19T07:11:52;2.78;;;1.55;;
71464;SDS011;59274;49.874;9.154;2023-09-19T07:14:18;2.77;;;1.50;;
71464;SDS011;59274;49.874;9.154;2023-09-19T07:16:44;4.90;;;1.33;;
71464;SDS011;59274;49.874;9.154;2023-09-19T07:19:10;3.60;;;1.30;;
71464;SDS011;59274;49.874;9.154;2023-09-19T07:21:36;4.07;;;1.67;;
71464;SDS011;59274;49.874;9.154;2023-09-19T07:24:03;3.35;;;1.73;;
71464;SDS011;59274;49.874;9.154;2023-09-19T07:26:29;2.83;;;1.50;;
71464;SDS011;59274;49.874;9.154;2023-09-19T07:28:56;3.00;;;1.60;;
71464;SDS011;59274;49.874;9.154;2023-09-19T07:31:22;3.70;;;1.70;;
71464;SDS011;59274;49.874;9.154;2023-09-19T07:33:48;5.50;;;1.83;;
71464;SDS011;59274;49.874;9.154;2023-09-19T07:36:14;4.97;;;1.50;;
71464;SDS011;59274;49.874;9.154;2023-09-19T07:38:40;3.53;;;1.80;;
71464;SDS011;59274;49.874;9.154;2023-09-19T07:41:07;6.22;;;1.95;;
71464;SDS011;59274;49.874;9.154;2023-09-19T07:43:34;3.75;;;1.77;;
71464;SDS011;59274;49.874;9.154;2023-09-19T07:46:07;3.97;;;1.85;;
71464;SDS011;59274;49.874;9.154;2023-09-19T07:48:36;3.70;;;1.95;;
71464;SDS011;59274;49.874;9.154;2023-09-19T07:51:03;4.70;;;1.60;;
71464;SDS011;59274;49.874;9.154;2023-09-19T07:53:31;4.80;;;1.50;;
71464;SDS011;59274;49.874;9.154;2023-09-19T07:56:06;5.88;;;1.55;;
71464;SDS011;59274;49.874;9.154;2023-09-19T07:58:33;4.00;;;1.73;;
71464;SDS011;59274;49.874;9.154;2023-09-19T08:01:04;3.13;;;1.90;;
71464;SDS011;59274;49.874;9.154;2023-09-19T08:03:30;6.20;;;1.70;;
71464;SDS011;59274;49.874;9.154;2023-09-19T08:05:59;4.03;;;1.60;;
71464;SDS011;59274;49.874;9.154;2023-09-19T08:08:25;2.85;;;1.73;;
71464;SDS011;59274;49.874;9.154;2023-09-19T08:10:55;5.72;;;1.60;;
71464;SDS011;59274;49.874;9.154;2023-09-19T08:13:22;3.88;;;1.30;;
71464;SDS011;59274;49.874;9.154;2023-09-19T08:15:48;6.50;;;1.80;;
71464;SDS011;59274;49.874;9.154;2023-09-19T08:18:14;4.03;;;1.50;;
71464;SDS011;59274;49.874;9.154;2023-09-19T08:20:40;4.93;;;1.52;;
71464;SDS011;59274;49.874;9.154;2023-09-19T08:23:07;1.73;;;1.10;;
71464;SDS011;59274;49.874;9.154;2023-09-19T08:25:33;3.15;;;1.75;;
71464;SDS011;59274;49.874;9.154;2023-09-19T08:27:59;2.97;;;1.42;;
71464;SDS011;59274;49.874;9.154;2023-09-19T08:30:27;2.60;;;1.40;;
71464;SDS011;59274;49.874;9.154;2023-09-19T08:33:01;3.85;;;1.30;;
71464;SDS011;59274;49.874;9.154;2023-09-19T08:35:30;2.65;;;1.40;;
71464;SDS011;59274;49.874;9.154;2023-09-19T08:37:56;5.45;;;1.40;;
71464;SDS011;59274;49.874;9.154;2023-09-19T08:40:21;3.27;;;1.33;;
71464;SDS011;59274;49.874;9.154;2023-09-19T08:42:48;4.68;;;1.20;;
71464;SDS011;59274;49.874;9.154;2023-09-19T08:45:18;4.53;;;1.35;;
71464;SDS011;59274;49.874;9.154;2023-09-19T08:48:30;3.45;;;1.50;;
71464;SDS011;59274;49.874;9.154;2023-09-19T08:51:07;3.05;;;1.55;;
71464;SDS011;59274;49.874;9.154;2023-09-19T08:53:47;3.67;;;1.75;;
71464;SDS011;59274;49.874;9.154;2023-09-19T08:56:30;2.63;;;1.70;;
71464;SDS011;59274;49.874;9.154;2023-09-19T08:59:02;3.38;;;1.50;;
71464;SDS011;59274;49.874;9.154;2023-09-19T09:01:29;2.05;;;1.33;;
71464;SDS011;59274;49.874;9.154;2023-09-19T09:03:57;4.63;;;1.10;;
71464;SDS011;59274;49.874;9.154;2023-09-19T09:06:24;3.72;;;1.67;;
71464;SDS011;59274;49.874;9.154;2023-09-19T09:08:50;3.88;;;1.35;;
71464;SDS011;59274;49.874;9.154;2023-09-19T09:11:17;7.00;;;1.70;;
71464;SDS011;59274;49.874;9.154;2023-09-19T09:13:44;2.90;;;1.42;;
71464;SDS011;59274;49.874;9.154;2023-09-19T09:16:10;6.68;;;1.30;;
71464;SDS011;59274;49.874;9.154;2023-09-19T09:18:36;2.30;;;1.23;;
71464;SDS011;59274;49.874;9.154;2023-09-19T09:21:01;2.83;;;1.55;;
71464;SDS011;59274;49.874;9.154;2023-09-19T09:23:29;3.45;;;1.63;;
71464;SDS011;59274;49.874;9.154;2023-09-19T09:25:57;4.47;;;1.27;;
71464;SDS011;59274;49.874;9.154;2023-09-19T09:28:27;2.80;;;1.15;;
71464;SDS011;59274;49.874;9.154;2023-09-19T09:30:54;1.57;;;1.03;;
71464;SDS011;59274;49.874;9.154;2023-09-19T09:33:20;3.88;;;1.48;;
71464;SDS011;59274;49.874;9.154;2023-09-19T09:35:52;3.20;;;1.20;;
71464;SDS011;59274;49.874;9.154;2023-09-19T09:38:23;2.75;;;1.40;;
71464;SDS011;59274;49.874;9.154;2023-09-19T09:40:52;3.00;;;1.27;;
71464;SDS011;59274;49.874;9.154;2023-09-19T09:43:42;2.60;;;1.40;;
71464;SDS011;59274;49.874;9.154;2023-09-19T09:46:14;2.38;;;1.27;;
71464;SDS011;59274;49.874;9.154;2023-09-19T09:48:59;4.97;;;1.48;;
71464;SDS011;59274;49.874;9.154;2023-09-19T09:54:15;3.60;;;1.40;;
71464;SDS011;59274;49.874;9.154;2023-09-19T09:56:55;3.13;;;1.42;;
71464;SDS011;59274;49.874;9.154;2023-09-19T10:02:18;5.20;;;1.20;;
71464;SDS011;59274;49.874;9.154;2023-09-19T10:04:51;5.43;;;1.38;;
71464;SDS011;59274;49.874;9.154;2023-09-19T10:07:30;4.67;;;1.30;;
71464;SDS011;59274;49.874;9.154;2023-09-19T10:10:31;2.33;;;1.38;;
71464;SDS011;59274;49.874;9.154;2023-09-19T10:13:06;3.70;;;1.50;;
71464;SDS011;59274;49.874;9.154;2023-09-19T10:15:33;2.25;;;1.23;;
71464;SDS011;59274;49.874;9.154;2023-09-19T10:18:04;3.15;;;1.10;;
71464;SDS011;59274;49.874;9.154;2023-09-19T10:20:30;5.40;;;1.45;;
71464;SDS011;59274;49.874;9.154;2023-09-19T10:22:55;4.90;;;1.50;;
71464;SDS011;59274;49.874;9.154;2023-09-19T10:25:29;5.88;;;1.48;;
71464;SDS011;59274;49.874;9.154;2023-09-19T10:27:56;5.28;;;1.20;;
71464;SDS011;59274;49.874;9.154;2023-09-19T10:30:26;2.38;;;1.30;;
71464;SDS011;59274;49.874;9.154;2023-09-19T10:33:00;4.93;;;1.70;;
71464;SDS011;59274;49.874;9.154;2023-09-19T10:35:27;4.63;;;1.60;;
71464;SDS011;59274;49.874;9.154;2023-09-19T10:37:57;3.30;;;1.42;;
71464;SDS011;59274;49.874;9.154;2023-09-19T10:40:26;2.20;;;1.20;;
71464;SDS011;59274;49.874;9.154;2023-09-19T10:43:00;2.53;;;1.27;;
71464;SDS011;59274;49.874;9.154;2023-09-19T10:45:30;2.58;;;1.40;;
71464;SDS011;59274;49.874;9.154;2023-09-19T10:47:57;3.88;;;1.27;;
71464;SDS011;59274;49.874;9.154;2023-09-19T10:50:24;1.83;;;1.20;;
71464;SDS011;59274;49.874;9.154;2023-09-19T10:52:50;5.37;;;1.03;;
71464;SDS011;59274;49.874;9.154;2023-09-19T10:55:23;3.38;;;1.23;;
71464;SDS011;59274;49.874;9.154;2023-09-19T10:57:53;5.28;;;1.45;;
71464;SDS011;59274;49.874;9.154;2023-09-19T11:00:18;4.38;;;1.40;;
71464;SDS011;59274;49.874;9.154;2023-09-19T11:05:37;2.13;;;1.30;;
71464;SDS011;59274;49.874;9.154;2023-09-19T11:08:08;2.65;;;1.17;;
71464;SDS011;59274;49.874;9.154;2023-09-19T11:10:49;3.95;;;1.45;;
71464;SDS011;59274;49.874;9.154;2023-09-19T11:13:29;5.25;;;1.10;;
71464;SDS011;59274;49.874;9.154;2023-09-19T11:16:02;3.17;;;1.63;;
71464;SDS011;59274;49.874;9.154;2023-09-19T11:26:44;2.75;;;1.23;;
71464;SDS011;59274;49.874;9.154;2023-09-19T11:29:25;5.43;;;1.17;;
71464;SDS011;59274;49.874;9.154;2023-09-19T11:31:53;4.50;;;1.60;;
71464;SDS011;59274;49.874;9.154;2023-09-19T11:37:02;4.15;;;1.67;;
71464;SDS011;59274;49.874;9.154;2023-09-19T11:39:29;3.40;;;1.08;;
71464;SDS011;59274;49.874;9.154;2023-09-19T11:41:55;3.28;;;1.17;;
71464;SDS011;59274;49.874;9.154;2023-09-19T11:49:29;2.92;;;1.17;;
71464;SDS011;59274;49.874;9.154;2023-09-19T11:51:57;3.30;;;1.33;;
71464;SDS011;59274;49.874;9.154;2023-09-19T11:54:29;2.20;;;1.42;;
71464;SDS011;59274;49.874;9.154;2023-09-19T11:56:57;5.38;;;1.70;;
71464;SDS011;59274;49.874;9.154;2023-09-19T11:59:24;3.22;;;1.40;;
71464;SDS011;59274;49.874;9.154;2023-09-19T12:01:55;2.67;;;1.30;;
71464;SDS011;59274;49.874;9.154;2023-09-19T12:07:02;3.88;;;1.40;;
71464;SDS011;59274;49.874;9.154;2023-09-19T12:09:39;3.60;;;1.52;;
71464;SDS011;59274;49.874;9.154;2023-09-19T12:12:07;4.07;;;1.65;;
71464;SDS011;59274;49.874;9.154;2023-09-19T12:14:34;3.40;;;1.60;;
71464;SDS011;59274;49.874;9.154;2023-09-19T12:17:00;3.72;;;1.63;;
71464;SDS011;59274;49.874;9.154;2023-09-19T12:19:28;1.95;;;1.40;;
71464;SDS011;59274;49.874;9.154;2023-09-19T12:21:54;3.53;;;1.70;;
71464;SDS011;59274;49.874;9.154;2023-09-19T12:24:23;3.13;;;1.80;;
71464;SDS011;59274;49.874;9.154;2023-09-19T12:26:51;1.98;;;1.25;;
71464;SDS011;59274;49.874;9.154;2023-09-19T12:29:20;5.13;;;1.80;;
71464;SDS011;59274;49.874;9.154;2023-09-19T12:31:56;2.63;;;1.60;;
71464;SDS011;59274;49.874;9.154;2023-09-19T12:34:26;5.22;;;1.60;;
71464;SDS011;59274;49.874;9.154;2023-09-19T12:37:03;4.55;;;1.70;;
71464;SDS011;59274;49.874;9.154;2023-09-19T12:39:47;3.60;;;1.70;;
71464;SDS011;59274;49.874;9.154;2023-09-19T12:42:15;4.50;;;1.60;;
71464;SDS011;59274;49.874;9.154;2023-09-19T12:44:42;4.00;;;1.60;;
71464;SDS011;59274;49.874;9.154;2023-09-19T12:47:10;4.25;;;1.45;;
71464;SDS011;59274;49.874;9.154;2023-09-19T12:49:41;2.70;;;1.55;;
71464;SDS011;59274;49.874;9.154;2023-09-19T12:52:38;3.15;;;1.52;;
71464;SDS011;59274;49.874;9.154;2023-09-19T12:55:05;3.03;;;1.65;;
71464;SDS011;59274;49.874;9.154;2023-09-19T12:57:36;10.93;;;1.65;;
71464;SDS011;59274;49.874;9.154;2023-09-19T13:00:05;3.40;;;1.45;;
71464;SDS011;59274;49.874;9.154;2023-09-19T13:02:31;2.50;;;1.40;;
71464;SDS011;59274;49.874;9.154;2023-09-19T13:04:58;5.47;;;1.50;;
71464;SDS011;59274;49.874;9.154;2023-09-19T13:07:44;2.38;;;1.42;;
71464;SDS011;59274;49.874;9.154;2023-09-19T13:10:12;2.30;;;1.30;;
71464;SDS011;59274;49.874;9.154;2023-09-19T13:12:41;1.75;;;1.40;;
71464;SDS011;59274;49.874;9.154;2023-09-19T13:15:13;4.53;;;1.47;;
71464;SDS011;59274;49.874;9.154;2023-09-19T13:17:48;3.88;;;1.40;;
71464;SDS011;59274;49.874;9.154;2023-09-19T13:20:21;4.63;;;1.58;;
71464;SDS011;59274;49.874;9.154;2023-09-19T13:22:52;5.72;;;1.45;;
71464;SDS011;59274;49.874;9.154;2023-09-19T13:25:24;3.10;;;1.40;;
71464;SDS011;59274;49.874;9.154;2023-09-19T13:27:54;3.57;;;1.60;;
71464;SDS011;59274;49.874;9.154;2023-09-19T13:30:22;4.72;;;1.55;;
71464;SDS011;59274;49.874;9.154;2023-09-19T13:32:50;4.68;;;2.03;;
71464;SDS011;59274;49.874;9.154;2023-09-19T13:35:17;5.20;;;1.63;;
71464;SDS011;59274;49.874;9.154;2023-09-19T13:37:43;3.08;;;1.40;;
71464;SDS011;59274;49.874;9.154;2023-09-19T13:40:13;4.97;;;1.55;;
71464;SDS011;59274;49.874;9.154;2023-09-19T13:42:40;3.20;;;1.20;;
71464;SDS011;59274;49.874;9.154;2023-09-19T13:45:06;3.65;;;1.42;;
71464;SDS011;59274;49.874;9.154;2023-09-19T13:47:33;2.05;;;1.20;;
71464;SDS011;59274;49.874;9.154;2023-09-19T13:49:59;3.17;;;1.30;;
71464;SDS011;59274;49.874;9.154;2023-09-19T13:52:25;2.70;;;1.17;;
71464;SDS011;59274;49.874;9.154;2023-09-19T13:54:53;2.95;;;1.52;;
71464;SDS011;59274;49.874;9.154;2023-09-19T13:57:21;3.20;;;1.58;;
71464;SDS011;59274;49.874;9.154;2023-09-19T13:59:53;5.18;;;1.55;;
71464;SDS011;59274;49.874;9.154;2023-09-19T14:02:19;3.45;;;1.73;;
71464;SDS011;59274;49.874;9.154;2023-09-19T14:04:48;2.33;;;1.35;;
71464;SDS011;59274;49.874;9.154;2023-09-19T14:07:14;2.45;;;1.40;;
71464;SDS011;59274;49.874;9.154;2023-09-19T14:09:41;5.28;;;1.38;;
71464;SDS011;59274;49.874;9.154;2023-09-19T14:12:06;2.97;;;1.30;;
71464;SDS011;59274;49.874;9.154;2023-09-19T14:14:32;2.42;;;1.40;;
71464;SDS011;59274;49.874;9.154;2023-09-19T14:16:57;2.38;;;1.13;;
71464;SDS011;59274;49.874;9.154;2023-09-19T14:19:26;3.05;;;1.23;;
71464;SDS011;59274;49.874;9.154;2023-09-19T14:21:52;1.55;;;1.30;;
71464;SDS011;59274;49.874;9.154;2023-09-19T14:24:20;3.50;;;1.40;;
71464;SDS011;59274;49.874;9.154;2023-09-19T14:26:46;2.15;;;1.23;;
71464;SDS011;59274;49.874;9.154;2023-09-19T14:29:12;1.67;;;1.20;;
71464;SDS011;59274;49.874;9.154;2023-09-19T14:31:38;4.10;;;1.20;;
71464;SDS011;59274;49.874;9.154;2023-09-19T14:34:05;2.72;;;1.38;;
71464;SDS011;59274;49.874;9.154;2023-09-19T14:36:31;2.72;;;1.20;;
71464;SDS011;59274;49.874;9.154;2023-09-19T14:38:57;2.37;;;1.10;;
71464;SDS011;59274;49.874;9.154;2023-09-19T14:41:23;1.60;;;1.00;;
71464;SDS011;59274;49.874;9.154;2023-09-19T14:43:50;3.45;;;1.70;;
71464;SDS011;59274;49.874;9.154;2023-09-19T14:46:20;4.55;;;1.70;;
71464;SDS011;59274;49.874;9.154;2023-09-19T14:48:46;1.65;;;1.20;;
71464;SDS011;59274;49.874;9.154;2023-09-19T14:51:14;4.13;;;1.70;;
71464;SDS011;59274;49.874;9.154;2023-09-19T14:53:40;3.27;;;1.20;;
71464;SDS011;59274;49.874;9.154;2023-09-19T14:56:09;2.78;;;1.40;;
71464;SDS011;59274;49.874;9.154;2023-09-19T14:58:36;2.35;;;1.30;;
71464;SDS011;59274;49.874;9.154;2023-09-19T15:01:10;3.95;;;1.50;;
71464;SDS011;59274;49.874;9.154;2023-09-19T15:03:37;2.42;;;1.20;;
71464;SDS011;59274;49.874;9.154;2023-09-19T15:06:07;2.97;;;1.25;;
71464;SDS011;59274;49.874;9.154;2023-09-19T15:08:35;4.05;;;1.55;;
71464;SDS011;59274;49.874;9.154;2023-09-19T15:11:06;4.13;;;1.58;;
71464;SDS011;59274;49.874;9.154;2023-09-19T15:13:33;2.42;;;1.10;;
71464;SDS011;59274;49.874;9.154;2023-09-19T15:15:59;3.22;;;1.35;;
71464;SDS011;59274;49.874;9.154;2023-09-19T15:18:34;3.15;;;1.58;;
71464;SDS011;59274;49.874;9.154;2023-09-19T15:21:09;3.67;;;1.50;;
71464;SDS011;59274;49.874;9.154;2023-09-19T15:23:36;3.72;;;1.63;;
71464;SDS011;59274;49.874;9.154;2023-09-19T15:26:06;1.55;;;1.20;;
71464;SDS011;59274;49.874;9.154;2023-09-19T15:28:33;3.20;;;1.43;;
71464;SDS011;59274;49.874;9.154;2023-09-19T15:33:31;3.35;;;1.48;;
71464;SDS011;59274;49.874;9.154;2023-09-19T15:38:31;2.90;;;1.30;;
71464;SDS011;59274;49.874;9.154;2023-09-19T15:40:57;2.80;;;1.30;;
71464;SDS011;59274;49.874;9.154;2023-09-19T15:43:24;4.15;;;1.25;;
71464;SDS011;59274;49.874;9.154;2023-09-19T15:45:49;3.87;;;1.10;;